LEST/SCQ METAR and TAF weather

Enter ICAO airport designator
Station Type Date Time Source
LEST METAR 2020/07/11 00:30 UTC NOAA

LEST 110030Z 04008KT 010V070 CAVOK 14/11 Q1020 NOSIG


Station Type Date Time Source
LEST Decoded METAR 2020/07/11 00:30 UTC NOAA

Santiago / Labacolla, Spain (LEST) 42-54N 008-26W 367M
Jul 10, 2020 - 08:30 PM EDT / 2020.07.11 0030 UTC
Wind: from the NE (040 degrees) at 9 MPH (8 KT) (direction variable):0
Visibility: greater than 7 mile(s):0
Temperature: 57 F (14 C)
Dew Point: 51 F (11 C)
Relative Humidity: 82%
Pressure (altimeter): 30.12 in. Hg (1020 hPa)
ob: LEST 110030Z 04008KT 010V070 CAVOK 14/11 Q1020 NOSIG
cycle: 0

Station Type Date Time Source
LEST TAF 2020/07/10 18:27 UTC NOAA

TAF LEST 101700Z 1018/1118 03009KT CAVOK TX28/1115Z TN13/1105Z PROB30
TEMPO 1018/1019 03015G25KT

Example: see airport list